Terminal Aerodrome Forecast
Issued by NWS

Home | Current Version | Previous Version | Text Only | Print | Product List | Glossary On
Versions: 1 2 3 4 5 6 7 8 9 10 11 12 13 14 15 16 17 18 19 20 21
000
FTUS42 KGSP 212325
TAFGMU
TAF
KGMU 212325Z 2200/2224 03007KT 4SM BR VCSH OVC004
     FM220700 04004KT 2SM -SHRA BR OVC003 PROB30 2209/2214 1SM TSRA
      BR OVC005CB
     FM221400 07007KT 3/4SM -SHRA BR OVC003
     FM221700 12006KT 1SM -SHRA BR OVC004
     FM222000 17008KT 4SM SHRA OVC007
      TEMPO 2220/2224 2SM TSRA OVC004CB=

USA.gov is the U.S. government's official web portal to all federal, state and local government web resources and services.